createdAt,value
2019-05-06T00:00:24.570Z,101628.05
2019-05-06T00:02:58.666Z,101629.27
2019-05-06T00:05:30.320Z,101625.68
2019-05-06T00:08:03.890Z,101620.93
2019-05-06T00:10:39.895Z,101617.52
2019-05-06T00:13:19.807Z,101621.81
2019-05-06T00:15:54.208Z,101619.87
2019-05-06T00:18:27.261Z,101626.63
2019-05-06T00:21:01.002Z,101625.80
2019-05-06T00:23:39.149Z,101627.50
2019-05-06T00:26:40.972Z,101634.06
2019-05-06T00:29:24.345Z,101629.22
2019-05-06T00:31:56.621Z,101624.57
2019-05-06T00:34:27.591Z,101618.67
2019-05-06T00:37:03.940Z,101621.42
2019-05-06T00:39:56.888Z,101622.31
2019-05-06T00:42:38.267Z,101623.59
2019-05-06T00:45:11.256Z,101621.44
2019-05-06T00:47:44.384Z,101628.11
2019-05-06T00:50:18.955Z,101633.34
2019-05-06T00:52:54.312Z,101636.09
2019-05-06T00:55:27.452Z,101628.31
2019-05-06T00:57:59.327Z,101632.08
2019-05-06T01:00:35.472Z,101627.73
2019-05-06T01:03:08.867Z,101629.15
2019-05-06T01:05:39.051Z,101623.69
2019-05-06T01:08:15.361Z,101623.24
2019-05-06T01:10:46.667Z,101618.45
2019-05-06T01:13:28.216Z,101616.25
2019-05-06T01:16:00.718Z,101616.80
2019-05-06T01:18:33.913Z,101623.75
2019-05-06T01:21:10.997Z,101623.77
2019-05-06T01:23:45.203Z,101620.16
2019-05-06T01:26:19.325Z,101621.55
2019-05-06T01:28:51.580Z,101618.02
2019-05-06T01:31:24.699Z,101619.34
2019-05-06T01:33:55.808Z,101626.83
2019-05-06T01:36:26.849Z,101624.60
2019-05-06T01:39:16.236Z,101627.69
2019-05-06T01:42:07.349Z,101621.03
2019-05-06T01:44:44.213Z,101629.00
2019-05-06T01:47:20.260Z,101628.93
2019-05-06T01:49:53.766Z,101631.62
2019-05-06T01:52:24.642Z,101633.00
2019-05-06T01:54:56.100Z,101626.80
2019-05-06T01:57:33.814Z,101628.05
2019-05-06T02:00:08.173Z,101627.72
2019-05-06T02:02:39.768Z,101629.89
2019-05-06T02:05:14.135Z,101633.36
2019-05-06T02:07:46.664Z,101632.54
2019-05-06T02:10:19.279Z,101631.97
2019-05-06T02:12:50.962Z,101637.71
2019-05-06T02:15:23.910Z,101639.53
2019-05-06T02:17:56.092Z,101635.19
2019-05-06T02:20:36.036Z,101636.87
2019-05-06T02:23:21.743Z,101636.38
2019-05-06T02:25:54.225Z,101639.48
2019-05-06T02:28:26.695Z,101637.86
2019-05-06T02:31:14.992Z,101637.66
2019-05-06T02:34:15.395Z,101636.84
2019-05-06T02:37:06.362Z,101640.46
2019-05-06T02:39:37.235Z,101640.59
2019-05-06T02:42:13.304Z,101637.04
2019-05-06T02:44:48.106Z,101640.58
2019-05-06T02:47:36.200Z,101631.25
2019-05-06T02:50:13.318Z,101640.64
2019-05-06T02:52:46.799Z,101635.73
2019-05-06T02:55:19.812Z,101630.80
2019-05-06T02:57:53.857Z,101632.64
2019-05-06T03:00:27.482Z,101627.84
2019-05-06T03:03:03.205Z,101633.13
2019-05-06T03:05:36.825Z,101634.45
2019-05-06T03:08:13.442Z,101633.01
2019-05-06T03:10:44.625Z,101632.63
2019-05-06T03:13:15.607Z,101634.40
2019-05-06T03:15:47.032Z,101639.30
2019-05-06T03:18:24.069Z,101628.94
2019-05-06T03:21:16.872Z,101631.31
2019-05-06T03:23:59.074Z,101629.05
2019-05-06T03:26:33.128Z,101626.30
2019-05-06T03:29:06.809Z,101622.76
2019-05-06T03:31:38.981Z,101622.42
2019-05-06T03:34:35.889Z,101620.23
2019-05-06T03:36:49.042Z,101623.25
2019-05-06T03:39:24.142Z,101615.08
2019-05-06T03:41:56.935Z,101621.44
2019-05-06T03:44:27.175Z,101621.51
2019-05-06T03:47:17.477Z,101619.45
2019-05-06T03:49:54.422Z,101619.28
2019-05-06T03:52:24.653Z,101623.41
2019-05-06T03:54:58.741Z,101617.55
2019-05-06T03:57:35.389Z,101622.36
2019-05-06T04:00:09.198Z,101623.89
2019-05-06T04:02:43.564Z,101626.81
2019-05-06T04:05:14.379Z,101630.66
2019-05-06T04:07:46.098Z,101626.61
2019-05-06T04:10:18.758Z,101628.54
2019-05-06T04:12:53.464Z,101629.06
2019-05-06T04:15:26.809Z,101634.59
2019-05-06T04:18:04.043Z,101635.03
2019-05-06T04:20:53.149Z,101632.78
2019-05-06T04:23:33.133Z,101635.99
2019-05-06T04:26:26.008Z,101634.59
2019-05-06T04:28:58.197Z,101635.91
2019-05-06T04:31:33.403Z,101640.72
2019-05-06T04:34:14.609Z,101638.08
2019-05-06T04:36:44.095Z,101626.64
2019-05-06T04:39:23.695Z,101631.23
2019-05-06T04:41:57.570Z,101636.52
2019-05-06T04:44:33.197Z,101637.32
2019-05-06T04:47:05.372Z,101646.63
2019-05-06T04:49:38.282Z,101653.56
2019-05-06T04:52:13.634Z,101647.38
2019-05-06T04:54:44.147Z,101640.20
2019-05-06T04:57:17.738Z,101645.05
2019-05-06T04:59:54.153Z,101645.53
2019-05-06T05:02:25.426Z,101652.05
2019-05-06T05:04:57.107Z,101649.41
2019-05-06T05:07:33.405Z,101651.08
2019-05-06T05:10:13.063Z,101650.69
2019-05-06T05:13:14.532Z,101652.84
2019-05-06T05:16:04.375Z,101652.05
2019-05-06T05:19:02.847Z,101656.87
2019-05-06T05:21:38.087Z,101656.60
2019-05-06T05:24:12.922Z,101663.63
2019-05-06T05:26:47.106Z,101662.10
2019-05-06T05:29:18.958Z,101666.69
2019-05-06T05:31:50.397Z,101665.31
2019-05-06T05:34:26.583Z,101660.14
2019-05-06T05:36:59.660Z,101664.16
2019-05-06T05:39:33.616Z,101662.22
2019-05-06T05:42:22.146Z,101667.77
2019-05-06T05:45:05.396Z,101679.37
2019-05-06T05:47:37.422Z,101675.10
2019-05-06T05:50:32.556Z,101674.49
2019-05-06T05:53:09.576Z,101669.53
2019-05-06T05:55:43.523Z,101669.53
2019-05-06T05:58:15.402Z,101671.88
2019-05-06T06:00:54.050Z,101669.64
2019-05-06T06:03:24.723Z,101669.81
2019-05-06T06:06:00.471Z,101673.78
2019-05-06T06:08:36.962Z,101671.73
2019-05-06T06:11:18.617Z,101670.00
2019-05-06T06:13:49.585Z,101667.69
2019-05-06T06:16:42.495Z,101667.51
2019-05-06T06:19:37.441Z,101675.94
2019-05-06T06:22:15.943Z,101669.36
2019-05-06T06:24:52.460Z,101674.61
2019-05-06T06:27:26.496Z,101664.55
2019-05-06T06:29:59.575Z,101655.33
2019-05-06T06:32:33.788Z,101658.33
2019-05-06T06:35:22.886Z,101669.31
2019-05-06T06:38:04.443Z,101677.94
2019-05-06T06:40:37.506Z,101675.50
2019-05-06T06:43:18.258Z,101683.31
2019-05-06T06:45:53.067Z,101682.56
2019-05-06T06:48:28.039Z,101678.54
2019-05-06T06:50:58.927Z,101674.86
2019-05-06T06:53:33.845Z,101675.39
2019-05-06T06:56:39.434Z,101671.06
2019-05-06T06:59:28.585Z,101667.97
2019-05-06T07:02:22.485Z,101669.56
2019-05-06T07:05:02.354Z,101661.80
2019-05-06T07:07:43.551Z,101669.05
2019-05-06T07:10:32.435Z,101666.54
2019-05-06T07:13:04.499Z,101665.59
2019-05-06T07:15:42.483Z,101661.84
2019-05-06T07:18:13.663Z,101667.73
2019-05-06T07:21:10.371Z,101668.69
2019-05-06T07:23:42.092Z,101670.41
2019-05-06T07:26:15.970Z,101673.31
2019-05-06T07:28:47.247Z,101672.39
2019-05-06T07:31:23.803Z,101671.91
2019-05-06T07:33:52.322Z,101674.06
2019-05-06T07:36:26.691Z,101677.52
2019-05-06T07:39:04.098Z,101677.36
2019-05-06T07:41:55.419Z,101678.63
2019-05-06T07:44:47.184Z,101682.81
2019-05-06T07:47:33.128Z,101680.39
2019-05-06T07:50:04.907Z,101688.02
2019-05-06T07:52:45.382Z,101697.89
2019-05-06T07:55:18.707Z,101689.61
2019-05-06T07:57:52.195Z,101693.25
2019-05-06T08:00:22.971Z,101694.84
2019-05-06T08:03:02.572Z,101698.89
2019-05-06T08:05:34.604Z,101695.09
2019-05-06T08:08:06.355Z,101699.11
2019-05-06T08:10:38.464Z,101695.52
2019-05-06T08:13:09.434Z,101693.58
2019-05-06T08:15:42.829Z,101693.56
2019-05-06T08:18:16.229Z,101696.61
2019-05-06T08:20:47.415Z,101696.19
2019-05-06T08:23:26.319Z,101689.56
2019-05-06T08:26:09.120Z,101685.64
2019-05-06T08:28:40.678Z,101686.45
2019-05-06T08:31:04.732Z,101688.19
2019-05-06T08:33:37.427Z,101697.23
2019-05-06T08:36:14.844Z,101683.59
2019-05-06T08:39:02.831Z,101686.01
2019-05-06T08:41:42.338Z,101682.58
2019-05-06T08:44:16.834Z,101681.20
2019-05-06T08:46:48.489Z,101679.50
2019-05-06T08:49:22.518Z,101679.04
2019-05-06T08:52:02.420Z,101681.37
2019-05-06T08:54:37.678Z,101682.67
2019-05-06T08:57:12.496Z,101674.83
2019-05-06T08:59:46.012Z,101683.70
2019-05-06T09:02:18.505Z,101682.49
2019-05-06T09:04:53.009Z,101682.28
2019-05-06T09:07:24.178Z,101678.28
2019-05-06T09:09:55.620Z,101678.02
2019-05-06T09:12:27.169Z,101682.23
2019-05-06T09:15:04.444Z,101676.16
2019-05-06T09:17:37.783Z,101674.75
2019-05-06T09:20:10.155Z,101671.20
2019-05-06T09:22:42.941Z,101669.67
2019-05-06T09:25:14.584Z,101675.52
2019-05-06T09:28:16.547Z,101661.20
2019-05-06T09:31:02.990Z,101669.17
2019-05-06T09:33:45.238Z,101673.95
2019-05-06T09:36:22.935Z,101667.30
2019-05-06T09:38:54.734Z,101673.69
2019-05-06T09:41:26.083Z,101664.19
2019-05-06T09:44:03.238Z,101668.82
2019-05-06T09:46:36.811Z,101664.85
2019-05-06T09:49:33.192Z,101670.41
2019-05-06T09:52:08.707Z,101666.61
2019-05-06T09:55:03.218Z,101667.64
2019-05-06T09:57:57.908Z,101662.98
2019-05-06T10:00:32.990Z,101658.45
2019-05-06T10:03:05.487Z,101654.64
2019-05-06T10:05:42.375Z,101655.78
2019-05-06T10:08:15.256Z,101649.61
2019-05-06T10:10:56.120Z,101651.68
2019-05-06T10:13:20.046Z,101646.37
2019-05-06T10:15:52.429Z,101646.92
2019-05-06T10:18:29.513Z,101645.20
2019-05-06T10:21:00.208Z,101647.03
2019-05-06T10:23:35.876Z,101644.87
2019-05-06T10:26:09.857Z,101646.92
2019-05-06T10:28:52.352Z,101640.49
2019-05-06T10:31:22.847Z,101639.70
2019-05-06T10:34:14.096Z,101637.91
2019-05-06T10:37:11.658Z,101628.28
2019-05-06T10:39:40.197Z,101645.62
2019-05-06T10:42:17.684Z,101636.75
2019-05-06T10:45:12.255Z,101631.93
2019-05-06T10:47:44.334Z,101637.52
2019-05-06T10:50:15.674Z,101641.48
2019-05-06T10:53:03.701Z,101631.48
2019-05-06T10:55:34.290Z,101631.45
2019-05-06T10:58:09.526Z,101630.03
2019-05-06T11:00:42.441Z,101629.58
2019-05-06T11:03:18.734Z,101633.14
2019-05-06T11:05:50.002Z,101625.55
2019-05-06T11:08:22.146Z,101623.13
2019-05-06T11:10:56.247Z,101621.48
2019-05-06T11:13:32.148Z,101623.31
2019-05-06T11:16:03.430Z,101615.72
2019-05-06T11:18:36.503Z,101623.57
2019-05-06T11:21:08.734Z,101617.11
2019-05-06T11:23:41.759Z,101612.14
2019-05-06T11:26:14.172Z,101609.37
2019-05-06T11:28:55.073Z,101617.56
2019-05-06T11:31:43.067Z,101611.33
2019-05-06T11:34:46.595Z,101611.48
2019-05-06T11:37:43.692Z,101611.94
2019-05-06T11:40:04.279Z,101607.27
2019-05-06T11:42:44.474Z,101605.10
2019-05-06T11:45:18.331Z,101599.80
2019-05-06T11:47:50.126Z,101600.16
2019-05-06T11:50:22.883Z,101604.58
2019-05-06T11:53:02.288Z,101591.48
2019-05-06T11:55:38.630Z,101603.51
2019-05-06T11:58:08.429Z,101595.53
2019-05-06T12:00:44.405Z,101594.06
2019-05-06T12:03:17.257Z,101598.34
2019-05-06T12:05:54.238Z,101595.08
2019-05-06T12:08:25.543Z,101599.34
2019-05-06T12:10:58.786Z,101600.76
2019-05-06T12:13:33.529Z,101595.42
2019-05-06T12:16:06.091Z,101601.39
2019-05-06T12:18:38.364Z,101604.03
2019-05-06T12:21:14.604Z,101599.25
2019-05-06T12:23:45.100Z,101602.00
2019-05-06T12:26:17.003Z,101601.33
2019-05-06T12:28:53.324Z,101607.20
2019-05-06T12:31:26.591Z,101610.19
2019-05-06T12:33:58.274Z,101607.42
2019-05-06T12:36:32.551Z,101602.27
2019-05-06T12:39:23.151Z,101605.65
2019-05-06T12:42:18.740Z,101609.14
2019-05-06T12:45:03.855Z,101601.43
2019-05-06T12:47:53.426Z,101599.12
2019-05-06T12:50:28.404Z,101600.16
2019-05-06T12:53:02.484Z,101602.41
2019-05-06T12:55:38.157Z,101602.28
2019-05-06T12:58:13.597Z,101603.67
2019-05-06T13:00:46.545Z,101602.08
2019-05-06T13:03:25.036Z,101606.76
2019-05-06T13:05:57.969Z,101604.49
2019-05-06T13:08:47.919Z,101597.31
2019-05-06T13:11:02.717Z,101603.03
2019-05-06T13:13:53.962Z,101600.95
2019-05-06T13:16:14.915Z,101586.06
2019-05-06T13:18:47.846Z,101588.39
2019-05-06T13:21:22.387Z,101586.98
2019-05-06T13:24:04.358Z,101580.83
2019-05-06T13:26:55.030Z,101577.36
2019-05-06T13:29:29.046Z,101574.48
2019-05-06T13:32:02.085Z,101577.77
2019-05-06T13:34:36.756Z,101578.73
2019-05-06T13:37:17.098Z,101572.30
2019-05-06T13:39:52.906Z,101573.70
2019-05-06T13:42:33.122Z,101578.95
2019-05-06T13:45:03.085Z,101569.10
2019-05-06T13:48:03.845Z,101565.36
2019-05-06T13:50:43.512Z,101567.06
2019-05-06T13:53:18.989Z,101572.95
2019-05-06T13:55:56.479Z,101563.98
2019-05-06T13:58:27.243Z,101557.70
2019-05-06T14:01:02.907Z,101556.38
2019-05-06T14:03:37.597Z,101557.45
2019-05-06T14:06:12.912Z,101550.95
2019-05-06T14:08:44.688Z,101550.35
2019-05-06T14:11:18.802Z,101543.02
2019-05-06T14:13:52.906Z,101544.17
2019-05-06T14:16:25.846Z,101539.72
2019-05-06T14:18:58.118Z,101535.61
2019-05-06T14:21:32.561Z,101537.41
2019-05-06T14:24:08.017Z,101529.28
2019-05-06T14:26:46.598Z,101535.50
2019-05-06T14:29:28.821Z,101542.49
2019-05-06T14:32:03.893Z,101537.20
2019-05-06T14:34:37.665Z,101535.08
2019-05-06T14:37:09.476Z,101527.89
2019-05-06T14:39:52.795Z,101529.72
2019-05-06T14:42:18.656Z,101527.66
2019-05-06T14:44:49.685Z,101526.17
2019-05-06T14:47:25.659Z,101531.36
2019-05-06T14:49:56.640Z,101523.33
2019-05-06T14:52:33.353Z,101525.32
2019-05-06T14:55:29.675Z,101513.17
2019-05-06T14:58:04.534Z,101518.21
2019-05-06T15:00:36.691Z,101516.05
2019-05-06T15:03:12.947Z,101509.63
2019-05-06T15:05:49.941Z,101511.36
2019-05-06T15:08:22.474Z,101500.67
2019-05-06T15:10:54.692Z,101487.78
2019-05-06T15:13:25.297Z,101487.78
2019-05-06T15:15:56.406Z,101500.09
2019-05-06T15:18:37.051Z,101491.98
2019-05-06T15:21:30.274Z,101498.28
2019-05-06T15:23:46.324Z,101497.48
2019-05-06T15:26:17.654Z,101487.44
2019-05-06T15:28:52.849Z,101495.66
2019-05-06T15:31:42.118Z,101487.60
2019-05-06T15:34:22.273Z,101484.01
2019-05-06T15:37:19.012Z,101481.06
2019-05-06T15:39:54.278Z,101480.78
2019-05-06T15:42:28.012Z,101482.80
2019-05-06T15:45:01.594Z,101478.92
2019-05-06T15:47:35.930Z,101479.23
2019-05-06T15:50:12.500Z,101482.43
2019-05-06T15:52:48.773Z,101483.39
2019-05-06T15:55:22.559Z,101487.73
2019-05-06T15:58:03.597Z,101499.39
2019-05-06T16:00:38.511Z,101504.69
2019-05-06T16:03:12.780Z,101530.45
2019-05-06T16:05:49.800Z,101530.80
2019-05-06T16:08:26.526Z,101529.25
2019-05-06T16:11:07.605Z,101528.11
2019-05-06T16:13:45.109Z,101539.49
2019-05-06T16:16:23.369Z,101532.34
2019-05-06T16:18:58.422Z,101538.26
2019-05-06T16:21:34.097Z,101539.63
2019-05-06T16:24:16.998Z,101530.36
2019-05-06T16:26:55.108Z,101536.22
2019-05-06T16:29:38.981Z,101534.59
2019-05-06T16:32:10.673Z,101530.75
2019-05-06T16:34:43.547Z,101534.23
2019-05-06T16:37:16.147Z,101541.73
2019-05-06T16:39:47.836Z,101538.03
2019-05-06T16:42:22.243Z,101538.67
2019-05-06T16:44:57.392Z,101539.80
2019-05-06T16:47:49.085Z,101549.78
2019-05-06T16:50:22.427Z,101553.19
2019-05-06T16:52:54.514Z,101548.75
2019-05-06T16:55:36.836Z,101547.17
2019-05-06T16:58:12.259Z,101544.80
2019-05-06T17:00:45.703Z,101551.92
2019-05-06T17:03:35.099Z,101547.74
2019-05-06T17:06:16.735Z,101547.02
2019-05-06T17:08:49.246Z,101541.80
2019-05-06T17:11:30.008Z,101533.80
2019-05-06T17:13:58.915Z,101539.73
2019-05-06T17:16:34.016Z,101542.41
2019-05-06T17:19:12.476Z,101549.42
2019-05-06T17:21:48.608Z,101555.79
2019-05-06T17:24:22.394Z,101552.63
2019-05-06T17:26:57.784Z,101549.25
2019-05-06T17:29:48.198Z,101552.52
2019-05-06T17:32:37.838Z,101548.30
2019-05-06T17:35:12.809Z,101552.74
2019-05-06T17:38:04.450Z,101550.93
2019-05-06T17:40:43.036Z,101554.41
2019-05-06T17:43:22.642Z,101549.94
2019-05-06T17:46:02.317Z,101544.28
2019-05-06T17:49:02.573Z,101543.41
2019-05-06T17:51:55.913Z,101543.55
2019-05-06T17:54:27.593Z,101540.30
2019-05-06T17:57:04.722Z,101538.27
2019-05-06T17:59:37.575Z,101544.94
2019-05-06T18:02:18.925Z,101549.91
2019-05-06T18:04:57.796Z,101553.04
2019-05-06T18:07:34.612Z,101547.67
2019-05-06T18:10:14.410Z,101553.48
2019-05-06T18:12:47.403Z,101550.37
2019-05-06T18:15:22.584Z,101545.49
2019-05-06T18:17:54.507Z,101544.77
2019-05-06T18:20:28.999Z,101538.36
2019-05-06T18:23:02.174Z,101542.17
2019-05-06T18:25:33.983Z,101540.72
2019-05-06T18:28:07.607Z,101533.03
2019-05-06T18:30:40.462Z,101537.89
2019-05-06T18:33:15.175Z,101521.66
2019-05-06T18:36:22.447Z,101541.80
2019-05-06T18:38:54.560Z,101543.36
2019-05-06T18:41:32.376Z,101535.75
2019-05-06T18:44:04.024Z,101533.62
2019-05-06T18:46:35.548Z,101533.53
2019-05-06T18:49:06.386Z,101536.81
2019-05-06T18:51:38.742Z,101532.50
2019-05-06T18:54:12.494Z,101525.76
2019-05-06T18:56:48.809Z,101527.43
2019-05-06T18:59:38.323Z,101522.95
2019-05-06T19:02:13.328Z,101529.83
2019-05-06T19:04:59.343Z,101529.13
2019-05-06T19:07:32.818Z,101528.28
2019-05-06T19:10:12.787Z,101530.26
2019-05-06T19:12:52.820Z,101530.47
2019-05-06T19:15:24.522Z,101539.20
2019-05-06T19:17:58.303Z,101535.92
2019-05-06T19:20:33.308Z,101541.80
2019-05-06T19:23:03.935Z,101538.53
2019-05-06T19:25:38.538Z,101536.88
2019-05-06T19:28:09.405Z,101536.97
2019-05-06T19:30:43.310Z,101536.94
2019-05-06T19:33:21.366Z,101544.76
2019-05-06T19:35:55.939Z,101543.97
2019-05-06T19:38:27.073Z,101537.33
2019-05-06T19:41:05.934Z,101538.14
2019-05-06T19:43:42.178Z,101549.03
2019-05-06T19:46:18.335Z,101541.53
2019-05-06T19:48:52.521Z,101546.91
2019-05-06T19:51:23.542Z,101551.97
2019-05-06T19:53:54.393Z,101552.13
2019-05-06T19:56:29.520Z,101549.48
2019-05-06T19:59:04.408Z,101548.77
2019-05-06T20:01:37.344Z,101558.52
2019-05-06T20:04:13.001Z,101545.89
2019-05-06T20:07:02.351Z,101543.08
2019-05-06T20:10:06.995Z,101546.55
2019-05-06T20:12:44.738Z,101541.90
2019-05-06T20:15:38.023Z,101550.23
2019-05-06T20:18:35.611Z,101545.00
2019-05-06T20:21:09.885Z,101546.67
2019-05-06T20:23:42.476Z,101550.97
2019-05-06T20:26:15.363Z,101557.61
2019-05-06T20:28:54.836Z,101554.31
2019-05-06T20:31:29.039Z,101555.84
2019-05-06T20:34:02.238Z,101551.70
2019-05-06T20:36:36.383Z,101554.27
2019-05-06T20:39:11.841Z,101558.30
2019-05-06T20:41:43.267Z,101558.31
2019-05-06T20:44:15.838Z,101554.35
2019-05-06T20:46:48.487Z,101553.98
2019-05-06T20:49:23.918Z,101551.33
2019-05-06T20:51:54.990Z,101555.09
2019-05-06T20:54:26.545Z,101555.32
2019-05-06T20:56:57.938Z,101551.94
2019-05-06T20:59:32.091Z,101550.89
2019-05-06T21:02:05.540Z,101545.97
2019-05-06T21:04:38.645Z,101550.73
2019-05-06T21:07:12.579Z,101551.11
2019-05-06T21:09:45.399Z,101548.84
2019-05-06T21:12:21.804Z,101553.33
2019-05-06T21:14:52.398Z,101555.61
2019-05-06T21:17:28.846Z,101553.55
2019-05-06T21:20:02.669Z,101555.34
2019-05-06T21:22:42.838Z,101547.79
2019-05-06T21:25:15.126Z,101544.38
2019-05-06T21:27:50.595Z,101546.63
2019-05-06T21:30:28.151Z,101542.27
2019-05-06T21:33:17.410Z,101543.73
2019-05-06T21:35:48.990Z,101540.80
2019-05-06T21:38:25.637Z,101539.88
2019-05-06T21:40:58.392Z,101541.14
2019-05-06T21:43:45.987Z,101547.55
2019-05-06T21:46:08.550Z,101539.38
2019-05-06T21:49:00.804Z,101543.19
2019-05-06T21:51:34.489Z,101540.03
2019-05-06T21:54:12.489Z,101530.09
2019-05-06T21:56:45.813Z,101539.58
2019-05-06T21:59:20.705Z,101533.59
2019-05-06T22:01:53.491Z,101530.69
2019-05-06T22:04:29.474Z,101534.81
2019-05-06T22:07:04.218Z,101529.35
2019-05-06T22:09:57.288Z,101530.80
2019-05-06T22:12:32.653Z,101535.83
2019-05-06T22:15:05.073Z,101528.84
2019-05-06T22:17:43.086Z,101531.98
2019-05-06T22:20:15.210Z,101524.91
2019-05-06T22:22:52.065Z,101527.00
2019-05-06T22:25:26.572Z,101527.43
2019-05-06T22:28:02.511Z,101516.70
2019-05-06T22:30:39.191Z,101518.61
2019-05-06T22:33:14.380Z,101517.72
2019-05-06T22:35:47.334Z,101520.34
2019-05-06T22:38:21.705Z,101515.88
2019-05-06T22:40:57.629Z,101518.84
2019-05-06T22:43:33.764Z,101517.63
2019-05-06T22:46:12.327Z,101519.03
2019-05-06T22:48:45.867Z,101519.98
2019-05-06T22:51:16.878Z,101520.28
2019-05-06T22:53:53.227Z,101515.77
2019-05-06T22:56:27.438Z,101524.43
2019-05-06T22:59:04.193Z,101519.61
2019-05-06T23:02:02.302Z,101526.61
2019-05-06T23:04:43.075Z,101519.91
2019-05-06T23:07:18.288Z,101522.91
2019-05-06T23:09:52.214Z,101512.79
2019-05-06T23:12:28.503Z,101517.20
2019-05-06T23:15:02.646Z,101515.45
2019-05-06T23:17:36.427Z,101521.59
2019-05-06T23:20:15.164Z,101520.01
2019-05-06T23:22:51.843Z,101513.67
2019-05-06T23:25:28.310Z,101519.88
2019-05-06T23:28:12.092Z,101513.48
2019-05-06T23:30:48.043Z,101520.95
2019-05-06T23:33:19.695Z,101520.25
2019-05-06T23:35:55.686Z,101524.69
2019-05-06T23:39:02.224Z,101523.09
2019-05-06T23:42:11.975Z,101523.59
2019-05-06T23:45:22.759Z,101514.45
2019-05-06T23:48:33.325Z,101512.06
2019-05-06T23:51:42.474Z,101510.02
2019-05-06T23:54:49.581Z,101514.98
2019-05-06T23:57:24.912Z,101515.54
